Time;durP1;ratioP1;P1;durP2;ratioP2;P2;SDS_P1;SDS_P2;PMS_P1;PMS_P2;Temp;Humidity;BMP_temperature;BMP_pressure;BME280_temperature;BME280_humidity;BME280_pressure;Samples;Min_cycle;Max_cycle;Signal;HPM_P1;HPM_P2
2022/02/28 00:00:17;;;;;;;1999.90;999.90;;;3.90;99.90;;;;;;5094930;28;20186;-79
2022/02/28 00:02:43;;;;;;;1999.90;999.90;;;4.00;99.90;;;;;;5095266;28;20184;-79
2022/02/28 00:05:09;;;;;;;1999.90;999.90;;;3.90;99.90;;;;;;5094584;28;20535;-79
2022/02/28 00:07:35;;;;;;;1999.90;999.90;;;3.90;99.90;;;;;;5094616;28;20320;-79
2022/02/28 00:10:01;;;;;;;1999.90;999.90;;;3.90;99.90;;;;;;5094966;28;20190;-79
2022/02/28 00:12:26;;;;;;;1999.90;999.90;;;3.80;99.90;;;;;;5093276;28;20647;-79
2022/02/28 00:14:52;;;;;;;1999.90;999.90;;;3.80;99.90;;;;;;5094270;28;20408;-79
2022/02/28 00:17:18;;;;;;;1999.90;999.90;;;3.80;99.90;;;;;;5093758;28;20198;-79
2022/02/28 00:19:43;;;;;;;1999.90;999.90;;;3.70;99.90;;;;;;5094853;28;20432;-79
2022/02/28 00:22:09;;;;;;;1999.90;999.90;;;3.70;99.90;;;;;;5094864;28;20619;-79
2022/02/28 00:24:35;;;;;;;1999.90;999.90;;;3.70;99.90;;;;;;5094430;28;20174;-79
2022/02/28 00:27:00;;;;;;;1999.90;999.90;;;3.70;99.90;;;;;;5094004;28;20216;-79
2022/02/28 00:29:26;;;;;;;1999.90;999.90;;;3.70;99.90;;;;;;5093261;28;20202;-79
2022/02/28 00:31:51;;;;;;;1999.90;999.90;;;3.60;99.90;;;;;;5094099;28;20684;-79
2022/02/28 00:34:17;;;;;;;1999.90;999.90;;;3.50;99.90;;;;;;5092752;28;20285;-79
2022/02/28 00:36:42;;;;;;;1999.90;999.90;;;3.50;99.90;;;;;;5094461;28;20174;-79
2022/02/28 00:39:08;;;;;;;1999.90;999.90;;;3.50;99.90;;;;;;5094064;28;20198;-79
2022/02/28 00:41:34;;;;;;;1999.90;999.90;;;3.40;99.90;;;;;;5094079;28;20185;-79
2022/02/28 00:44:00;;;;;;;1999.90;999.90;;;3.40;99.90;;;;;;5094064;28;20315;-79
2022/02/28 00:46:25;;;;;;;1999.90;999.90;;;3.30;99.90;;;;;;5094090;28;20412;-79
2022/02/28 00:48:51;;;;;;;1999.90;999.90;;;3.30;99.90;;;;;;5094348;28;20213;-79
2022/02/28 00:51:17;;;;;;;1999.90;999.90;;;3.30;99.90;;;;;;5094622;28;20170;-79
2022/02/28 00:53:42;;;;;;;1999.90;999.90;;;3.30;99.90;;;;;;5094392;28;20175;-79
2022/02/28 00:56:08;;;;;;;1999.90;999.90;;;3.30;99.90;;;;;;5093195;28;20216;-79
2022/02/28 00:58:34;;;;;;;1999.90;999.90;;;3.30;99.90;;;;;;5093623;28;20226;-79
2022/02/28 01:01:00;;;;;;;1999.90;999.90;;;3.20;99.90;;;;;;5092490;28;20174;-79
2022/02/28 01:03:26;;;;;;;1999.90;999.90;;;3.20;99.90;;;;;;5093581;28;20427;-79
2022/02/28 01:05:53;;;;;;;1999.90;999.90;;;3.20;99.90;;;;;;5093567;28;20644;-79
2022/02/28 01:08:19;;;;;;;1999.90;999.90;;;3.20;99.90;;;;;;5092364;28;20198;-79
2022/02/28 01:10:45;;;;;;;1999.90;999.90;;;3.20;99.90;;;;;;5095372;28;20201;-78
2022/02/28 01:13:10;;;;;;;1999.90;999.90;;;3.20;99.90;;;;;;5098318;28;20174;-79
2022/02/28 02:00:32;;;;;;;1999.90;999.90;;;2.80;99.90;;;;;;5304516;22;20229;-73
2022/02/28 02:02:58;;;;;;;1999.90;999.90;;;2.90;99.90;;;;;;5071763;28;20570;-74
2022/02/28 02:05:24;;;;;;;1999.90;999.90;;;2.90;99.90;;;;;;5071484;28;20190;-73
2022/02/28 02:07:50;;;;;;;1999.90;999.90;;;2.90;99.90;;;;;;5071880;28;20167;-73
2022/02/28 02:10:16;;;;;;;1999.90;999.90;;;2.90;99.90;;;;;;5071784;28;20984;-73
2022/02/28 02:12:43;;;;;;;1999.90;999.90;;;2.90;99.90;;;;;;5071884;28;20405;-73
2022/02/28 02:15:11;;;;;;;1999.90;999.90;;;2.90;99.90;;;;;;5071404;28;20183;-74
2022/02/28 02:17:37;;;;;;;1999.90;999.90;;;2.80;99.90;;;;;;5071808;28;20249;-74
2022/02/28 02:20:05;;;;;;;1999.90;999.90;;;2.80;99.90;;;;;;5071840;28;20209;-73
2022/02/28 02:22:30;;;;;;;1999.90;999.90;;;2.80;99.90;;;;;;5071820;28;20688;-74
2022/02/28 02:24:56;;;;;;;1999.90;999.90;;;2.80;99.90;;;;;;5071419;28;20200;-74
2022/02/28 02:27:21;;;;;;;1999.90;999.90;;;2.80;99.90;;;;;;5071796;28;20159;-74
2022/02/28 02:29:47;;;;;;;1999.90;999.90;;;2.80;99.90;;;;;;5071653;28;20671;-73
2022/02/28 02:32:15;;;;;;;1999.90;999.90;;;2.80;99.90;;;;;;5071780;28;20260;-74
2022/02/28 02:34:41;;;;;;;1999.90;999.90;;;2.80;99.90;;;;;;5071460;28;20156;-73
2022/02/28 03:53:50;;;;;;;1999.90;999.90;;;2.20;99.90;;;;;;5034300;28;20168;-73
2022/02/28 03:57:09;;;;;;;1999.90;999.90;;;2.20;99.90;;;;;;5033274;28;20184;-74
2022/02/28 04:00:26;;;;;;;1999.90;999.90;;;2.20;99.90;;;;;;5033405;28;20177;-74
2022/02/28 06:41:34;;;;;;;;;;;;;;;;;;;;;
2022/02/28 07:15:18;;;;;;;1999.90;999.90;;;2.20;99.90;;;;;;6034793;22;20189;-78
2022/02/28 07:17:44;;;;;;;1999.90;999.90;;;2.30;99.90;;;;;;5101664;28;20242;-77
2022/02/28 07:20:10;;;;;;;1999.90;999.90;;;2.30;99.90;;;;;;5101850;28;20198;-78
2022/02/28 07:22:36;;;;;;;1999.90;999.90;;;2.40;99.90;;;;;;5101882;28;20177;-77
2022/02/28 07:25:03;;;;;;;1999.90;999.90;;;2.40;99.90;;;;;;5101262;28;20166;-76
2022/02/28 07:27:28;;;;;;;1999.90;999.90;;;2.40;99.90;;;;;;5081676;28;20167;-77
2022/02/28 07:29:54;;;;;;;1999.90;999.90;;;2.50;99.90;;;;;;5081434;28;20193;-79
2022/02/28 07:32:19;;;;;;;1999.90;999.90;;;2.60;99.90;;;;;;5081675;28;20171;-79
2022/02/28 07:34:45;;;;;;;1999.90;999.90;;;2.70;99.90;;;;;;5080306;28;20229;-79
2022/02/28 07:37:10;;;;;;;1999.90;999.90;;;2.70;99.90;;;;;;5081501;28;20198;-79
2022/02/28 07:39:36;;;;;;;1999.90;999.90;;;2.80;99.90;;;;;;5081256;28;20190;-78
2022/02/28 07:42:02;;;;;;;1999.90;999.90;;;2.80;99.90;;;;;;5081135;28;20656;-79
2022/02/28 07:44:29;;;;;;;1999.90;999.90;;;2.90;99.90;;;;;;5081434;28;20171;-79
2022/02/28 07:46:55;;;;;;;1999.90;999.90;;;3.10;99.90;;;;;;5081164;28;20464;-77
2022/02/28 07:49:22;;;;;;;1999.90;999.90;;;3.10;99.90;;;;;;5080864;28;20167;-78
2022/02/28 07:51:47;;;;;;;1999.90;999.90;;;3.20;99.90;;;;;;5081885;28;20206;-78
2022/02/28 07:54:13;;;;;;;1999.90;999.90;;;3.20;99.90;;;;;;5080117;28;20182;-78
2022/02/28 07:56:39;;;;;;;1999.90;999.90;;;3.40;99.90;;;;;;5080463;28;20262;-78
2022/02/28 07:59:04;;;;;;;1999.90;999.90;;;3.40;99.90;;;;;;5079495;28;20199;-79
2022/02/28 08:01:30;;;;;;;1999.90;999.90;;;3.50;99.90;;;;;;5081022;28;20163;-78
2022/02/28 08:03:56;;;;;;;1999.90;999.90;;;3.60;99.90;;;;;;5077992;28;20456;-78
2022/02/28 08:06:21;;;;;;;1999.90;999.90;;;3.60;99.90;;;;;;5078190;28;20187;-78
2022/02/28 08:08:47;;;;;;;1999.90;999.90;;;3.70;99.90;;;;;;5078533;28;20224;-77
2022/02/28 08:11:13;;;;;;;1999.90;999.90;;;3.90;99.90;;;;;;5078297;28;20221;-78
2022/02/28 08:13:38;;;;;;;1999.90;999.90;;;3.90;99.90;;;;;;5078026;28;20178;-78
2022/02/28 08:16:04;;;;;;;1999.90;999.90;;;4.00;99.90;;;;;;5077842;28;20203;-78
2022/02/28 08:18:30;;;;;;;1999.90;999.90;;;4.10;99.90;;;;;;5078206;28;20178;-78
2022/02/28 08:20:56;;;;;;;1999.90;999.90;;;4.20;99.90;;;;;;5078335;28;20218;-77
2022/02/28 08:23:22;;;;;;;1999.90;999.90;;;4.30;99.90;;;;;;5078020;28;20413;-78
2022/02/28 08:25:49;;;;;;;1999.90;999.90;;;4.40;99.90;;;;;;5078103;28;20187;-78
2022/02/28 08:28:16;;;;;;;1999.90;999.90;;;4.40;99.90;;;;;;5060769;28;20173;-78
2022/02/28 08:30:42;;;;;;;1999.90;999.90;;;4.50;99.90;;;;;;5072790;28;20191;-78
2022/02/28 08:33:12;;;;;;;1999.90;999.90;;;4.50;99.90;;;;;;5062276;28;20415;-78
2022/02/28 08:35:48;;;;;;;1999.90;999.90;;;4.70;99.90;;;;;;5078620;28;20442;-78
2022/02/28 08:38:17;;;;;;;1999.90;999.90;;;4.70;99.90;;;;;;5028506;28;20246;-78
2022/02/28 08:40:45;;;;;;;1999.90;999.90;;;4.80;99.90;;;;;;5078357;28;20516;-78
2022/02/28 08:43:11;;;;;;;1999.90;999.90;;;5.00;99.90;;;;;;5061001;28;20177;-78
2022/02/28 08:45:43;;;;;;;1999.90;999.90;;;5.10;99.90;;;;;;5060132;28;20486;-78
2022/02/28 08:48:09;;;;;;;1999.90;999.90;;;5.00;99.90;;;;;;5060262;28;20555;-78
2022/02/28 08:50:35;;;;;;;1999.90;999.90;;;5.10;99.90;;;;;;5060793;28;20179;-78
2022/02/28 08:53:03;;;;;;;1999.90;999.90;;;5.20;99.90;;;;;;5075940;28;20961;-78
2022/02/28 08:55:30;;;;;;;1999.90;999.90;;;5.30;99.90;;;;;;5060713;28;20434;-78
2022/02/28 08:58:15;;;;;;;1999.90;999.90;;;5.40;99.90;;;;;;5045613;28;20466;-78
2022/02/28 09:00:41;;;;;;;1999.90;999.90;;;5.40;99.90;;;;;;5077430;28;20488;-78
2022/02/28 09:03:12;;;;;;;1999.90;999.90;;;5.40;99.90;;;;;;5088234;28;20418;-78
2022/02/28 09:05:38;;;;;;;1999.90;999.90;;;5.50;99.90;;;;;;5083419;28;20516;-78
2022/02/28 09:08:04;;;;;;;1999.90;999.90;;;5.60;99.90;;;;;;5058769;28;20483;-78
2022/02/28 09:10:30;;;;;;;1999.90;999.90;;;5.70;99.90;;;;;;5057956;28;20185;-78
2022/02/28 09:12:56;;;;;;;1999.90;999.90;;;5.80;99.90;;;;;;5058115;28;20948;-78
2022/02/28 09:15:21;;;;;;;1999.90;999.90;;;5.90;99.90;;;;;;5060131;28;20244;-78
2022/02/28 09:17:49;;;;;;;1999.90;999.90;;;5.90;99.90;;;;;;5059935;28;20504;-78
2022/02/28 09:20:16;;;;;;;1999.90;999.90;;;6.10;99.90;;;;;;5078121;28;20203;-78
2022/02/28 09:22:41;;;;;;;1999.90;999.90;;;6.20;99.90;;;;;;5077702;28;20437;-77
2022/02/28 09:25:08;;;;;;;1999.90;999.90;;;6.20;99.90;;;;;;5055443;28;20179;-78
2022/02/28 09:27:34;;;;;;;1999.90;999.90;;;6.30;99.90;;;;;;5072191;28;20197;-78
2022/02/28 09:30:01;;;;;;;1999.90;999.90;;;6.40;99.90;;;;;;5072096;28;20482;-78
2022/02/28 09:32:26;;;;;;;1999.90;999.90;;;6.50;99.90;;;;;;5072127;28;20505;-78
2022/02/28 09:34:52;;;;;;;1999.90;999.90;;;6.70;99.90;;;;;;5071812;28;20882;-78
2022/02/28 09:37:17;;;;;;;1999.90;999.90;;;6.70;99.90;;;;;;5072006;28;20191;-78
2022/02/28 09:39:43;;;;;;;1999.90;999.90;;;6.80;99.90;;;;;;5071977;28;20198;-78
2022/02/28 09:42:10;;;;;;;1999.90;999.90;;;6.90;99.90;;;;;;5072005;28;20319;-78
2022/02/28 09:44:36;;;;;;;1999.90;999.90;;;7.00;99.90;;;;;;5071631;28;20488;-78
2022/02/28 09:47:03;;;;;;;1999.90;999.90;;;7.10;99.90;;;;;;5071853;28;20789;-78
2022/02/28 09:49:29;;;;;;;1999.90;999.90;;;7.10;99.90;;;;;;5071854;28;20412;-78
2022/02/28 09:51:55;;;;;;;1999.90;999.90;;;7.20;99.90;;;;;;5071871;28;20862;-78
2022/02/28 09:54:20;;;;;;;1999.90;999.90;;;7.30;99.90;;;;;;5071528;28;20414;-78
2022/02/28 09:56:46;;;;;;;1999.90;999.90;;;7.50;99.90;;;;;;5071824;28;20187;-78
2022/02/28 09:59:12;;;;;;;1999.90;999.90;;;7.50;99.90;;;;;;5071676;28;20281;-78
2022/02/28 10:01:42;;;;;;;1999.90;999.90;;;7.60;99.90;;;;;;5075783;28;20628;-78
2022/02/28 10:04:07;;;;;;;1999.90;999.90;;;7.70;99.90;;;;;;5075671;28;20178;-78
2022/02/28 10:06:33;;;;;;;1999.90;999.90;;;7.70;99.90;;;;;;5075849;28;20474;-78
2022/02/28 10:09:05;;;;;;;1999.90;999.90;;;7.90;99.90;;;;;;5075868;28;20178;-78
2022/02/28 10:11:39;;;;;;;1999.90;999.90;;;8.00;99.90;;;;;;5075826;28;20167;-78
2022/02/28 10:14:06;;;;;;;1999.90;999.90;;;8.10;99.90;;;;;;5075473;28;20413;-78
2022/02/28 10:16:34;;;;;;;1999.90;999.90;;;8.20;99.90;;;;;;5075472;28;20953;-78
2022/02/28 10:19:00;;;;;;;1999.90;999.90;;;8.30;99.90;;;;;;5075641;28;20448;-78
2022/02/28 10:21:45;;;;;;;1999.90;999.90;;;8.30;99.90;;;;;;5075522;28;20899;-78
2022/02/28 10:24:17;;;;;;;1999.90;999.90;;;8.40;99.90;;;;;;5075111;28;20856;-78
2022/02/28 10:26:45;;;;;;;1999.90;999.90;;;8.60;99.90;;;;;;5075447;28;20466;-78
2022/02/28 10:29:17;;;;;;;1999.90;999.90;;;8.70;99.90;;;;;;5075483;28;20420;-79
2022/02/28 10:31:45;;;;;;;1999.90;999.90;;;8.70;99.90;;;;;;5075463;28;20408;-78
2022/02/28 10:34:22;;;;;;;1999.90;999.90;;;8.80;99.90;;;;;;5075102;28;20432;-79
2022/02/28 10:36:58;;;;;;;1999.90;999.90;;;9.00;99.90;;;;;;5075320;28;20424;-78
2022/02/28 10:39:26;;;;;;;1999.90;999.90;;;9.10;99.90;;;;;;5075213;28;20950;-78
2022/02/28 10:41:55;;;;;;;1999.90;999.90;;;9.20;99.90;;;;;;5075238;28;20430;-78
2022/02/28 10:44:21;;;;;;;1999.90;999.90;;;9.30;99.90;;;;;;5074891;28;20492;-78
2022/02/28 10:46:49;;;;;;;1999.90;999.90;;;9.30;99.90;;;;;;5075046;28;20433;-78
2022/02/28 10:49:40;;;;;;;1999.90;999.90;;;9.40;99.90;;;;;;5075091;28;20413;-78
2022/02/28 10:52:08;;;;;;;1999.90;999.90;;;9.60;99.90;;;;;;5071428;28;20831;-78
2022/02/28 10:54:45;;;;;;;1999.90;999.90;;;9.60;99.90;;;;;;5056720;28;20931;-79
2022/02/28 10:57:22;;;;;;;1999.90;999.90;;;9.40;99.90;;;;;;5075064;28;20428;-78
2022/02/28 10:59:54;;;;;;;1999.90;999.90;;;9.60;99.90;;;;;;5074946;28;20457;-78
2022/02/28 11:02:22;;;;;;;1999.90;999.90;;;9.60;98.80;;;;;;5074810;28;20445;-78
2022/02/28 11:04:49;;;;;;;1999.90;999.90;;;9.50;99.90;;;;;;5074510;28;20413;-78
2022/02/28 11:07:23;;;;;;;1999.90;999.90;;;9.60;97.60;;;;;;5074833;28;20451;-78
2022/02/28 11:09:49;;;;;;;1999.90;999.90;;;9.50;95.70;;;;;;5074826;28;20528;-78
2022/02/28 11:12:26;;;;;;;1999.90;999.90;;;9.70;96.60;;;;;;5074245;28;20960;-78
2022/02/28 11:14:55;;;;;;;1999.90;999.90;;;9.80;94.80;;;;;;5074455;28;20407;-79
2022/02/28 11:17:24;;;;;;;1999.90;999.90;;;10.00;95.80;;;;;;5074447;28;20911;-79
2022/02/28 11:19:51;;;;;;;1999.90;999.90;;;10.10;96.10;;;;;;5074426;28;20514;-78
2022/02/28 11:22:18;;;;;;;1999.90;999.90;;;10.20;97.10;;;;;;5074565;28;20784;-78
2022/02/28 11:24:46;;;;;;;1999.90;999.90;;;10.40;92.80;;;;;;5074220;28;20469;-78
2022/02/28 11:27:12;;;;;;;1999.90;999.90;;;10.50;95.30;;;;;;5074395;28;20429;-79
2022/02/28 11:29:38;;;;;;;1999.90;999.90;;;10.60;89.00;;;;;;5074298;28;20415;-78
2022/02/28 11:32:07;;;;;;;1999.90;999.90;;;10.60;88.20;;;;;;5075929;28;20911;-78
2022/02/28 11:34:33;;;;;;;1999.90;999.90;;;10.60;88.90;;;;;;5060546;28;20807;-78
2022/02/28 11:37:02;;;;;;;1999.90;999.90;;;10.50;83.70;;;;;;5061287;28;20470;-78
2022/02/28 11:39:35;;;;;;;1999.90;999.90;;;10.40;86.70;;;;;;5060441;28;20205;-78
2022/02/28 11:42:04;;;;;;;1999.90;999.90;;;10.70;92.30;;;;;;5078489;28;20407;-78
2022/02/28 11:44:37;;;;;;;1999.90;999.90;;;10.80;88.40;;;;;;5060453;28;20429;-78
2022/02/28 11:47:13;;;;;;;1999.90;999.90;;;11.10;83.50;;;;;;5060781;28;20478;-78
2022/02/28 11:49:44;;;;;;;1999.90;999.90;;;11.50;78.20;;;;;;5061619;28;20412;-78
2022/02/28 11:52:48;;;;;;;1999.90;999.90;;;12.10;79.40;;;;;;5060794;28;20775;-78
2022/02/28 11:55:15;;;;;;;1999.90;999.90;;;13.00;72.90;;;;;;4982583;28;20424;-78
2022/02/28 11:57:52;;;;;;;1999.90;999.90;;;13.70;63.40;;;;;;4998972;28;20604;-78
2022/02/28 12:00:38;;;;;;;1999.90;999.90;;;14.50;59.10;;;;;;5025940;28;20554;-78
2022/02/28 12:03:29;;;;;;;1999.90;999.90;;;15.10;51.10;;;;;;5062492;28;20551;-78
2022/02/28 12:05:55;;;;;;;1999.90;999.90;;;15.20;45.80;;;;;;5079111;28;20471;-78
2022/02/28 12:08:38;;;;;;;1999.90;999.90;;;15.30;44.20;;;;;;5080462;28;20420;-78
2022/02/28 12:11:28;;;;;;;1999.90;999.90;;;15.70;43.00;;;;;;5080466;28;20175;-78
2022/02/28 12:14:02;;;;;;;1999.90;999.90;;;15.60;36.60;;;;;;5079888;28;20409;-78
2022/02/28 12:19:28;;;;;;;1999.90;999.90;;;15.60;32.80;;;;;;5079255;28;20852;-79
2022/02/28 12:22:03;;;;;;;1999.90;999.90;;;16.10;37.40;;;;;;5079207;28;20500;-78
2022/02/28 12:24:56;;;;;;;1999.90;999.90;;;16.50;33.90;;;;;;5078133;28;20408;-78
2022/02/28 12:27:51;;;;;;;1999.90;999.90;;;16.70;33.60;;;;;;5079664;28;20778;-78
2022/02/28 12:30:37;;;;;;;1999.90;999.90;;;16.70;30.00;;;;;;5062999;28;20421;-79
2022/02/28 12:33:04;;;;;;;1999.90;999.90;;;16.60;28.60;;;;;;5079349;28;20401;-79
2022/02/28 12:35:49;;;;;;;1999.90;999.90;;;16.90;28.30;;;;;;5079109;28;20432;-78
2022/02/28 12:38:15;;;;;;;1999.90;999.90;;;16.70;28.50;;;;;;5079967;28;20411;-78
2022/02/28 12:40:52;;;;;;;1999.90;999.90;;;16.70;28.50;;;;;;5079705;28;20482;-78
2022/02/28 12:43:20;;;;;;;1999.90;999.90;;;16.90;26.30;;;;;;5080330;28;20574;-77
2022/02/28 12:45:48;;;;;;;1999.90;999.90;;;16.80;27.80;;;;;;5079759;28;20458;-78
2022/02/28 12:48:16;;;;;;;1999.90;999.90;;;17.20;27.80;;;;;;5080291;28;20446;-78
2022/02/28 12:50:50;;;;;;;1999.90;999.90;;;17.30;26.10;;;;;;5079213;28;20955;-79
2022/02/28 12:53:17;;;;;;;1999.90;999.90;;;17.30;24.40;;;;;;5080807;28;20753;-78
2022/02/28 12:56:10;;;;;;;1999.90;999.90;;;17.30;24.90;;;;;;5079930;28;20451;-78
2022/02/28 12:58:38;;;;;;;1999.90;999.90;;;17.30;25.70;;;;;;5059077;28;20946;-78
2022/02/28 13:01:18;;;;;;;1999.90;999.90;;;17.40;25.20;;;;;;5080020;28;20438;-78
2022/02/28 13:03:59;;;;;;;1999.90;999.90;;;17.90;25.60;;;;;;5062464;28;20410;-78
2022/02/28 13:06:30;;;;;;;1999.90;999.90;;;18.40;23.60;;;;;;5062640;28;20432;-78
2022/02/28 13:09:00;;;;;;;1999.90;999.90;;;18.50;24.30;;;;;;5078593;28;20465;-78
2022/02/28 13:11:26;;;;;;;1999.90;999.90;;;18.90;22.70;;;;;;5062062;28;20413;-78
2022/02/28 13:13:55;;;;;;;1999.90;999.90;;;19.10;21.80;;;;;;5045458;28;20447;-78
2022/02/28 13:16:22;;;;;;;1999.90;999.90;;;19.20;21.00;;;;;;5078174;28;20460;-79
2022/02/28 13:19:01;;;;;;;1999.90;999.90;;;19.10;21.50;;;;;;5078736;28;20598;-79
2022/02/28 13:21:35;;;;;;;1999.90;999.90;;;19.10;19.60;;;;;;5078974;28;20436;-76
2022/02/28 13:24:10;;;;;;;1999.90;999.90;;;19.30;19.40;;;;;;5077201;28;20408;-76
2022/02/28 13:26:37;;;;;;;1999.90;999.90;;;19.60;19.40;;;;;;5078318;28;20418;-79
2022/02/28 13:29:04;;;;;;;1999.90;999.90;;;19.70;20.50;;;;;;5079492;28;20417;-78
2022/02/28 13:31:33;;;;;;;1999.90;999.90;;;20.00;19.40;;;;;;5078839;28;20452;-78
2022/02/28 13:34:00;;;;;;;1999.90;999.90;;;20.30;18.60;;;;;;5078357;28;20407;-77
2022/02/28 13:36:38;;;;;;;1999.90;999.90;;;20.40;18.70;;;;;;5077149;28;20476;-77
2022/02/28 13:39:07;;;;;;;1999.90;999.90;;;20.70;18.50;;;;;;5078583;28;20492;-79
2022/02/28 13:41:41;;;;;;;1999.90;999.90;;;21.20;17.90;;;;;;5078293;28;20484;-78
2022/02/28 13:44:15;;;;;;;1999.90;999.90;;;21.20;15.90;;;;;;5077773;28;20410;-78
2022/02/28 13:47:02;;;;;;;1999.90;999.90;;;21.90;18.50;;;;;;5077117;28;20459;-77
2022/02/28 13:49:56;;;;;;;1999.90;999.90;;;22.20;16.20;;;;;;5077285;28;20511;-77
2022/02/28 13:52:24;;;;;;;1999.90;999.90;;;22.50;17.50;;;;;;5052746;28;20428;-77
2022/02/28 13:55:05;;;;;;;1999.90;999.90;;;22.50;15.20;;;;;;5076177;28;20491;-77
2022/02/28 13:57:34;;;;;;;1999.90;999.90;;;22.80;15.70;;;;;;5075863;28;20441;-77
2022/02/28 14:00:19;;;;;;;1999.90;999.90;;;22.90;15.50;;;;;;5075432;28;20489;-77
2022/02/28 14:02:58;;;;;;;1999.90;999.90;;;23.00;14.30;;;;;;5075808;28;20406;-77
2022/02/28 14:05:29;;;;;;;1999.90;999.90;;;23.30;14.60;;;;;;5075355;28;20510;-77
2022/02/28 14:07:59;;;;;;;1999.90;999.90;;;23.80;14.60;;;;;;5072899;28;20424;-78
2022/02/28 14:11:25;;;;;;;1999.90;999.90;;;24.10;13.10;;;;;;5075722;28;20440;-78
2022/02/28 14:13:53;;;;;;;1999.90;999.90;;;24.10;12.90;;;;;;5045168;28;20788;-77
2022/02/28 14:16:30;;;;;;;1999.90;999.90;;;24.30;13.80;;;;;;5073274;28;20833;-77
2022/02/28 14:19:09;;;;;;;1999.90;999.90;;;24.60;12.50;;;;;;5070632;28;20427;-77
2022/02/28 14:21:39;;;;;;;1999.90;999.90;;;24.10;11.50;;;;;;5073465;28;20383;-76
2022/02/28 14:24:16;;;;;;;1999.90;999.90;;;23.80;11.90;;;;;;5073386;28;20408;-77
2022/02/28 14:26:44;;;;;;;1999.90;999.90;;;23.60;12.00;;;;;;5071130;28;20972;-76
2022/02/28 14:29:15;;;;;;;1999.90;999.90;;;23.60;11.30;;;;;;5072202;28;20414;-76
2022/02/28 14:31:54;;;;;;;1999.90;999.90;;;23.50;10.70;;;;;;5072175;28;20418;-77
2022/02/28 14:34:25;;;;;;;1999.90;999.90;;;23.40;12.40;;;;;;5071599;28;20443;-77
2022/02/28 14:37:04;;;;;;;;;;;;;;;;;;;;;
2022/02/28 14:39:33;;;;;;;1999.90;999.90;;;23.30;11.80;;;;;;5072175;28;20855;-76
2022/02/28 14:42:01;;;;;;;1999.90;999.90;;;23.30;11.70;;;;;;5072683;28;20783;-77
2022/02/28 14:44:29;;;;;;;1999.90;999.90;;;23.60;12.30;;;;;;5070606;28;20431;-77
2022/02/28 14:49:32;;;;;;;1999.90;999.90;;;23.60;10.90;;;;;;5125281;22;20487;-77
2022/02/28 14:55:48;;;;;;;1999.90;999.90;;;24.20;10.30;;;;;;5078834;28;20467;-77
2022/02/28 14:58:46;;;;;;;;;;;;;;;;;;;;;
2022/02/28 15:01:17;;;;;;;1999.90;999.90;;;23.50;10.00;;;;;;5097847;28;20505;-77
2022/02/28 15:03:53;;;;;;;;;;;;;;;;;;;;;
2022/02/28 15:06:19;;;;;;;1999.90;999.90;;;23.70;11.40;;;;;;5096933;28;20398;-77
2022/02/28 15:08:44;;;;;;;1999.90;999.90;;;23.60;9.60;;;;;;5097630;28;20449;-77
2022/02/28 15:11:10;;;;;;;1999.90;999.90;;;23.70;10.90;;;;;;5097933;28;20166;-77
2022/02/28 15:13:35;;;;;;;1999.90;999.90;;;23.30;9.90;;;;;;5080270;28;20168;-77
2022/02/28 15:16:02;;;;;;;1999.90;999.90;;;23.30;11.20;;;;;;5095816;28;20737;-76
2022/02/28 15:18:30;;;;;;;1999.90;999.90;;;22.90;10.20;;;;;;5096005;28;20202;-76
2022/02/28 15:20:58;;;;;;;1999.90;999.90;;;23.10;12.60;;;;;;5096168;28;20876;-76
2022/02/28 15:23:24;;;;;;;1999.90;999.90;;;23.10;9.90;;;;;;5097684;28;20778;-79
2022/02/28 15:25:50;;;;;;;1999.90;999.90;;;22.90;10.00;;;;;;5102644;28;20527;-79
2022/02/28 15:28:16;;;;;;;1999.90;999.90;;;22.70;9.70;;;;;;5083791;28;20232;-79
2022/02/28 15:31:00;;;;;;;1999.90;999.90;;;23.20;10.30;;;;;;5100546;28;20478;-78
2022/02/28 15:33:26;;;;;;;1999.90;999.90;;;23.10;9.20;;;;;;5099544;28;20174;-79
2022/02/28 15:35:52;;;;;;;1999.90;999.90;;;22.90;9.00;;;;;;5101962;28;20418;-79
2022/02/28 15:38:18;;;;;;;1999.90;999.90;;;23.00;9.10;;;;;;5082002;28;20174;-79
2022/02/28 15:40:45;;;;;;;1999.90;999.90;;;22.80;7.90;;;;;;5096632;28;20569;-80
2022/02/28 15:43:11;;;;;;;1999.90;999.90;;;22.50;9.20;;;;;;5095728;28;20785;-77
2022/02/28 15:48:28;;;;;;;1999.90;999.90;;;22.90;9.30;;;;;;4615781;26;20466;-78
2022/02/28 15:51:01;;;;;;;1999.90;999.90;;;23.10;9.40;;;;;;5075913;28;20466;-79
2022/02/28 15:53:27;;;;;;;1999.90;999.90;;;23.20;8.50;;;;;;5077611;28;20758;-79
2022/02/28 16:01:28;;;;;;;1999.90;999.90;;;23.20;9.50;;;;;;5629043;22;20539;-77
2022/02/28 16:03:56;;;;;;;1999.90;999.90;;;23.00;9.90;;;;;;5069451;28;20911;-79
2022/02/28 16:13:53;;;;;;;;;;;;;;;;;;;;;
2022/02/28 16:16:28;;;;;;;1999.90;999.90;;;21.00;8.90;;;;;;5056289;28;20487;-79
2022/02/28 16:22:15;;;;;;;1999.90;999.90;;;20.00;9.30;;;;;;5057217;28;20387;-79
2022/02/28 16:24:41;;;;;;;1999.90;999.90;;;19.70;10.10;;;;;;5056761;28;20402;-80
2022/02/28 16:27:34;;;;;;;1999.90;999.90;;;19.70;10.20;;;;;;5055409;28;20184;-79
2022/02/28 16:30:35;;;;;;;1999.90;999.90;;;19.50;11.50;;;;;;5056276;28;20549;-78
2022/02/28 16:33:15;;;;;;;1999.90;999.90;;;19.40;10.30;;;;;;5054893;28;20434;-79
2022/02/28 16:36:13;;;;;;;1999.90;999.90;;;19.00;11.50;;;;;;5056503;28;20856;-79
2022/02/28 16:42:10;;;;;;;1999.90;999.90;;;19.00;12.10;;;;;;5052050;28;20406;-79
2022/02/28 16:44:51;;;;;;;;;;;;;;;;;;;;;
2022/02/28 16:47:52;;;;;;;1999.90;999.90;;;19.10;12.80;;;;;;5079707;22;20870;-80
2022/02/28 16:50:57;;;;;;;;;;;;;;;;;;;;;
2022/02/28 17:07:46;;;;;;;1999.90;999.90;;;15.40;15.80;;;;;;4795407;26;20494;-78
2022/02/28 17:14:07;;;;;;;1999.90;999.90;;;14.20;17.10;;;;;;5012849;28;20411;-79
2022/02/28 17:23:47;;;;;;;1999.90;999.90;;;12.50;19.40;;;;;;4970402;28;20413;-78
2022/02/28 17:29:34;;;;;;;1999.90;999.90;;;12.10;21.40;;;;;;4975884;28;20471;-78
2022/02/28 17:32:32;;;;;;;1999.90;999.90;;;11.60;22.10;;;;;;5030717;28;20414;-79
2022/02/28 17:35:48;;;;;;;1999.90;999.90;;;11.50;22.60;;;;;;5031327;28;20410;-78
2022/02/28 17:38:19;;;;;;;1999.90;999.90;;;11.20;23.40;;;;;;5021291;28;20548;-78
2022/02/28 17:53:41;;;;;;;1999.90;999.90;;;10.60;26.10;;;;;;5052887;28;20487;-78
2022/02/28 17:56:14;;;;;;;1999.90;999.90;;;10.40;26.80;;;;;;4992139;28;20448;-78
2022/02/28 18:05:30;;;;;;;1999.90;999.90;;;10.20;28.70;;;;;;5053286;28;20401;-79
2022/02/28 18:16:12;;;;;;;;;;;;;;;;;;;;;
2022/02/28 18:49:44;;;;;;;1999.90;999.90;;;9.20;34.90;;;;;;4975315;28;20495;-80
2022/02/28 18:58:09;;;;;;;1999.90;999.90;;;9.00;37.70;;;;;;5588997;22;20490;-78
2022/02/28 19:00:47;;;;;;;1999.90;999.90;;;9.00;39.00;;;;;;5057590;28;20437;-79
2022/02/28 19:03:14;;;;;;;1999.90;999.90;;;9.00;39.70;;;;;;5073360;28;20637;-80
2022/02/28 19:05:40;;;;;;;1999.90;999.90;;;9.00;40.60;;;;;;5073296;28;20504;-80
2022/02/28 19:08:06;;;;;;;1999.90;999.90;;;8.90;40.20;;;;;;5057585;28;20924;-80
2022/02/28 19:10:35;;;;;;;1999.90;999.90;;;9.00;41.30;;;;;;5058454;28;20220;-80
2022/02/28 19:13:10;;;;;;;1999.90;999.90;;;9.10;42.70;;;;;;5040885;28;20427;-80
2022/02/28 19:16:20;;;;;;;;;;;;;;;;;;;;;
2022/02/28 19:19:11;;;;;;;1999.90;999.90;;;8.80;43.30;;;;;;4995834;28;20434;-79
2022/02/28 19:27:36;;;;;;;1999.90;999.90;;;8.80;44.40;;;;;;5151628;22;20978;-77
2022/02/28 19:30:03;;;;;;;1999.90;999.90;;;8.80;45.60;;;;;;5078550;28;20200;-78
2022/02/28 19:32:29;;;;;;;1999.90;999.90;;;8.70;45.70;;;;;;5078450;28;20773;-78
2022/02/28 19:34:54;;;;;;;1999.90;999.90;;;8.60;44.90;;;;;;5078545;28;20402;-77
2022/02/28 19:37:20;;;;;;;1999.90;999.90;;;8.70;47.30;;;;;;5079096;28;20271;-78
2022/02/28 19:39:46;;;;;;;1999.90;999.90;;;8.50;46.40;;;;;;5079751;28;20636;-79
2022/02/28 19:42:11;;;;;;;1999.90;999.90;;;8.50;47.20;;;;;;5077686;28;20665;-77
2022/02/28 19:44:37;;;;;;;1999.90;999.90;;;8.40;47.90;;;;;;5074009;28;20246;-77
2022/02/28 20:10:10;;;;;;;1999.90;999.90;;;8.20;57.80;;;;;;1433651;26;20567;-77
2022/02/28 20:12:36;;;;;;;1999.90;999.90;;;8.40;58.80;;;;;;5060442;28;20391;-78
2022/02/28 20:15:03;;;;;;;1999.90;999.90;;;8.40;58.30;;;;;;5059343;28;20179;-78
2022/02/28 20:17:40;;;;;;;1999.90;999.90;;;8.20;59.30;;;;;;5059734;28;20778;-77
2022/02/28 20:20:22;;;;;;;1999.90;999.90;;;8.30;59.90;;;;;;5057714;28;20394;-78